createdAt,value
2022-09-15T00:01:11.429Z,12.20
2022-09-15T00:03:39.570Z,12.20
2022-09-15T00:06:08.346Z,12.20
2022-09-15T00:08:37.029Z,12.30
2022-09-15T00:11:19.396Z,12.30
2022-09-15T00:13:47.022Z,12.30
2022-09-15T00:16:15.739Z,12.40
2022-09-15T00:18:44.603Z,12.40
2022-09-15T00:21:20.305Z,12.40
2022-09-15T00:23:48.832Z,12.50
2022-09-15T00:26:21.140Z,12.40
2022-09-15T00:28:48.539Z,12.50
2022-09-15T00:31:21.267Z,12.50
2022-09-15T00:33:51.762Z,12.60
2022-09-15T00:36:20.342Z,12.70
2022-09-15T00:38:47.420Z,12.70
2022-09-15T00:41:19.434Z,12.80
2022-09-15T00:44:05.498Z,12.90
2022-09-15T00:46:40.545Z,12.90
2022-09-15T00:49:15.503Z,13.00
2022-09-15T00:52:03.556Z,13.00
2022-09-15T00:54:50.351Z,13.10
2022-09-15T00:57:31.633Z,13.20
2022-09-15T01:00:00.877Z,13.40
2022-09-15T01:02:34.628Z,13.40
2022-09-15T01:05:07.478Z,13.50
2022-09-15T01:08:07.276Z,13.50
2022-09-15T01:10:38.366Z,13.60
2022-09-15T01:13:12.652Z,13.60
2022-09-15T01:16:14.563Z,13.60
2022-09-15T01:19:08.369Z,13.60
2022-09-15T01:22:23.845Z,13.70
2022-09-15T01:25:01.240Z,13.70
2022-09-15T01:28:01.464Z,13.70
2022-09-15T01:30:34.890Z,13.70
2022-09-15T01:33:14.010Z,13.70
2022-09-15T01:36:05.960Z,13.70
2022-09-15T01:39:01.113Z,13.70
2022-09-15T01:41:37.939Z,13.70
2022-09-15T01:44:14.499Z,13.70
2022-09-15T01:46:47.131Z,13.70
2022-09-15T01:49:23.884Z,13.70
2022-09-15T01:51:53.981Z,13.70
2022-09-15T01:54:29.775Z,13.70
2022-09-15T01:56:57.736Z,13.80
2022-09-15T01:59:25.581Z,13.80
2022-09-15T02:02:09.956Z,13.70
2022-09-15T02:04:57.091Z,13.70
2022-09-15T02:08:05.636Z,13.70
2022-09-15T02:10:48.231Z,13.70
2022-09-15T02:14:11.338Z,13.70
2022-09-15T02:16:41.877Z,13.60
2022-09-15T02:19:38.125Z,13.60
2022-09-15T02:22:17.599Z,13.60
2022-09-15T02:24:57.093Z,13.50
2022-09-15T02:27:27.437Z,13.50
2022-09-15T02:30:00.126Z,13.60
2022-09-15T02:32:28.716Z,13.50
2022-09-15T02:34:57.442Z,13.50
2022-09-15T02:37:26.332Z,13.50
2022-09-15T02:39:59.118Z,13.50
2022-09-15T02:42:28.684Z,13.50
2022-09-15T02:44:56.745Z,13.50
2022-09-15T02:47:25.090Z,13.50
2022-09-15T02:49:52.812Z,13.50
2022-09-15T02:52:20.197Z,13.60
2022-09-15T02:54:48.009Z,13.60
2022-09-15T02:57:14.922Z,13.70
2022-09-15T03:00:00.928Z,13.70
2022-09-15T03:02:27.889Z,13.70
2022-09-15T03:04:55.065Z,13.70
2022-09-15T03:07:21.980Z,13.70
2022-09-15T03:09:48.942Z,13.70
2022-09-15T03:12:16.019Z,13.70
2022-09-15T03:14:43.377Z,13.70
2022-09-15T03:17:10.556Z,13.70
2022-09-15T03:19:37.717Z,13.70
2022-09-15T03:22:04.968Z,13.70
2022-09-15T03:24:31.909Z,13.60
2022-09-15T03:26:58.798Z,13.70
2022-09-15T03:29:25.772Z,13.60
2022-09-15T03:31:52.886Z,13.60
2022-09-15T03:34:19.862Z,13.60
2022-09-15T03:36:46.804Z,13.60
2022-09-15T03:39:13.994Z,13.60
2022-09-15T03:41:41.070Z,13.60
2022-09-15T03:44:08.204Z,13.60
2022-09-15T03:46:35.612Z,13.50
2022-09-15T03:49:03.443Z,13.50
2022-09-15T03:51:30.466Z,13.50
2022-09-15T03:53:57.494Z,13.50
2022-09-15T03:56:27.848Z,13.50
2022-09-15T03:58:54.789Z,13.50
2022-09-15T04:01:22.988Z,13.50
2022-09-15T04:03:51.600Z,13.50
2022-09-15T04:06:21.153Z,13.50
2022-09-15T04:08:50.036Z,13.50
2022-09-15T04:11:19.061Z,13.50
2022-09-15T04:13:46.387Z,13.50
2022-09-15T04:16:20.208Z,13.50
2022-09-15T04:18:47.403Z,13.50
2022-09-15T04:21:18.080Z,13.50
2022-09-15T04:23:45.268Z,13.40
2022-09-15T04:26:26.253Z,13.40
2022-09-15T04:28:53.727Z,13.40
2022-09-15T04:31:21.102Z,13.40
2022-09-15T04:33:48.167Z,13.50
2022-09-15T04:36:19.004Z,13.40
2022-09-15T04:38:47.198Z,13.40
2022-09-15T04:41:15.150Z,13.40
2022-09-15T04:43:45.838Z,13.40
2022-09-15T04:46:14.048Z,13.40
2022-09-15T04:48:41.382Z,13.30
2022-09-15T04:51:13.221Z,13.30
2022-09-15T04:53:40.801Z,13.30
2022-09-15T04:56:14.621Z,13.20
2022-09-15T04:59:02.518Z,13.20
2022-09-15T05:01:35.298Z,13.20
2022-09-15T05:04:04.518Z,13.20
2022-09-15T05:06:33.357Z,13.20
2022-09-15T05:09:00.985Z,13.20
2022-09-15T05:11:28.387Z,13.20
2022-09-15T05:13:55.614Z,13.20
2022-09-15T05:16:25.783Z,13.20
2022-09-15T05:18:56.800Z,13.30
2022-09-15T05:21:24.384Z,13.30
2022-09-15T05:23:52.253Z,13.30
2022-09-15T05:26:25.349Z,13.30
2022-09-15T05:28:52.907Z,13.40
2022-09-15T05:31:26.864Z,13.40
2022-09-15T05:33:55.144Z,13.40
2022-09-15T05:36:25.574Z,13.40
2022-09-15T05:38:56.768Z,13.50
2022-09-15T05:41:25.281Z,13.50
2022-09-15T05:43:55.218Z,13.50
2022-09-15T05:46:22.663Z,13.50
2022-09-15T05:48:49.682Z,13.50
2022-09-15T05:51:17.005Z,13.60
2022-09-15T05:53:45.728Z,13.60
2022-09-15T05:56:16.384Z,13.60
2022-09-15T05:58:46.748Z,13.60
2022-09-15T06:01:18.196Z,13.70
2022-09-15T06:03:45.830Z,13.70
2022-09-15T06:06:13.521Z,13.70
2022-09-15T06:08:48.258Z,13.80
2022-09-15T06:11:18.868Z,13.90
2022-09-15T06:13:46.792Z,13.90
2022-09-15T06:16:19.210Z,14.00
2022-09-15T06:18:48.349Z,14.10
2022-09-15T06:21:22.397Z,14.20
2022-09-15T06:24:04.391Z,14.40
2022-09-15T06:26:31.306Z,14.60
2022-09-15T06:29:01.908Z,14.80
2022-09-15T06:31:31.601Z,14.90
2022-09-15T06:33:59.841Z,15.00
2022-09-15T06:36:29.782Z,15.10
2022-09-15T06:38:57.732Z,15.20
2022-09-15T06:41:25.007Z,15.30
2022-09-15T06:43:53.006Z,15.30
2022-09-15T06:46:24.992Z,15.40
2022-09-15T06:48:53.512Z,15.50
2022-09-15T06:51:24.855Z,15.50
2022-09-15T06:53:54.157Z,15.60
2022-09-15T06:56:23.364Z,15.60
2022-09-15T06:58:50.684Z,15.60
2022-09-15T07:01:25.728Z,15.60
2022-09-15T07:03:53.137Z,15.60
2022-09-15T07:06:21.362Z,15.60
2022-09-15T07:08:49.805Z,15.70
2022-09-15T07:11:18.297Z,15.70
2022-09-15T07:13:45.868Z,15.70
2022-09-15T07:16:14.217Z,15.80
2022-09-15T07:18:43.555Z,15.90
2022-09-15T07:21:17.419Z,15.80
2022-09-15T07:23:44.904Z,15.90
2022-09-15T07:26:21.110Z,15.90
2022-09-15T07:28:54.209Z,15.90
2022-09-15T07:31:24.185Z,15.90
2022-09-15T07:33:51.482Z,15.90
2022-09-15T07:36:18.964Z,15.90
2022-09-15T07:38:48.979Z,16.00
2022-09-15T07:41:26.165Z,16.10
2022-09-15T07:43:59.350Z,16.10
2022-09-15T07:46:29.694Z,16.20
2022-09-15T07:48:56.762Z,16.30
2022-09-15T07:51:25.494Z,16.70
2022-09-15T07:53:53.093Z,16.90
2022-09-15T07:56:21.063Z,16.80
2022-09-15T07:58:49.049Z,16.80
2022-09-15T08:01:18.103Z,16.70
2022-09-15T08:03:51.783Z,16.80
2022-09-15T08:06:22.742Z,16.70
2022-09-15T08:08:53.103Z,16.70
2022-09-15T08:11:22.569Z,16.70
2022-09-15T08:13:52.302Z,16.90
2022-09-15T08:16:23.361Z,17.20
2022-09-15T08:18:53.564Z,17.30
2022-09-15T08:21:22.165Z,17.40
2022-09-15T08:23:58.888Z,17.30
2022-09-15T08:26:27.265Z,17.50
2022-09-15T08:28:54.505Z,17.50
2022-09-15T08:31:25.630Z,17.60
2022-09-15T08:33:54.934Z,17.80
2022-09-15T08:36:23.052Z,17.80
2022-09-15T08:38:50.067Z,17.90
2022-09-15T08:41:31.135Z,17.80
2022-09-15T08:44:08.254Z,17.50
2022-09-15T08:46:50.469Z,17.40
2022-09-15T08:49:51.582Z,17.20
2022-09-15T08:52:45.905Z,17.00
2022-09-15T08:55:48.625Z,16.80
2022-09-15T08:58:25.781Z,16.80
2022-09-15T09:01:21.329Z,16.90
2022-09-15T09:04:25.095Z,17.30
2022-09-15T09:07:49.392Z,17.60
2022-09-15T09:10:49.363Z,18.20
2022-09-15T09:13:52.945Z,18.40
2022-09-15T09:16:41.844Z,18.50
2022-09-15T09:19:22.445Z,18.80
2022-09-15T09:21:57.765Z,19.20
2022-09-15T09:24:41.136Z,19.10
2022-09-15T09:27:20.039Z,19.30
2022-09-15T09:29:53.872Z,19.40
2022-09-15T09:32:27.426Z,19.70
2022-09-15T09:35:14.779Z,19.50
2022-09-15T09:37:41.925Z,19.20
2022-09-15T09:40:14.994Z,19.20
2022-09-15T09:42:43.556Z,19.10
2022-09-15T09:45:16.550Z,19.00
2022-09-15T09:47:43.650Z,18.90
2022-09-15T09:50:38.835Z,18.80
2022-09-15T09:53:33.344Z,18.90
2022-09-15T09:56:24.232Z,18.80
2022-09-15T09:58:51.933Z,18.70
2022-09-15T10:01:24.533Z,18.70
2022-09-15T10:04:19.023Z,18.60
2022-09-15T10:06:46.665Z,18.70
2022-09-15T10:09:18.236Z,18.60
2022-09-15T10:11:52.906Z,18.70
2022-09-15T10:14:33.316Z,18.90
2022-09-15T10:17:15.425Z,19.00
2022-09-15T10:19:56.348Z,19.10
2022-09-15T10:22:40.987Z,18.90
2022-09-15T10:25:20.372Z,18.60
2022-09-15T10:28:21.601Z,18.70
2022-09-15T10:31:10.717Z,18.60
2022-09-15T10:33:44.802Z,18.70
2022-09-15T10:36:29.505Z,18.80
2022-09-15T10:39:38.976Z,19.10
2022-09-15T10:42:32.008Z,19.50
2022-09-15T10:45:03.982Z,19.40
2022-09-15T10:48:26.368Z,19.40
2022-09-15T10:51:16.004Z,19.20
2022-09-15T10:54:18.173Z,19.10
2022-09-15T10:56:49.939Z,18.80
2022-09-15T10:59:51.367Z,18.60
2022-09-15T11:02:32.694Z,18.00
2022-09-15T11:05:20.385Z,17.80
2022-09-15T11:08:31.928Z,17.50
2022-09-15T11:11:11.330Z,17.40
2022-09-15T11:14:13.437Z,17.20
2022-09-15T11:17:08.936Z,17.10
2022-09-15T11:20:01.246Z,17.10
2022-09-15T11:22:50.880Z,17.40
2022-09-15T11:25:23.546Z,17.60
2022-09-15T11:28:11.535Z,17.80
2022-09-15T11:30:51.853Z,17.60
2022-09-15T11:33:24.041Z,17.50
2022-09-15T11:36:39.347Z,17.00
2022-09-15T11:39:28.224Z,16.70
2022-09-15T11:42:06.961Z,16.50
2022-09-15T11:44:43.686Z,16.40
2022-09-15T11:47:45.968Z,16.40
2022-09-15T11:50:28.327Z,16.50
2022-09-15T11:53:09.203Z,17.00
2022-09-15T11:55:53.434Z,17.40
2022-09-15T11:59:00.027Z,18.00
2022-09-15T12:01:49.018Z,18.30
2022-09-15T12:04:58.904Z,18.40
2022-09-15T12:07:32.734Z,18.40
2022-09-15T12:10:13.448Z,18.40
2022-09-15T12:12:43.816Z,18.60
2022-09-15T12:15:27.337Z,18.90
2022-09-15T12:18:47.111Z,19.00
2022-09-15T12:21:41.610Z,19.30
2022-09-15T12:24:34.657Z,19.00
2022-09-15T12:27:02.334Z,18.80
2022-09-15T12:29:41.837Z,18.90
2022-09-15T12:32:29.408Z,18.90
2022-09-15T12:35:16.787Z,18.50
2022-09-15T12:37:47.952Z,18.40
2022-09-15T12:40:34.899Z,18.90
2022-09-15T12:43:16.392Z,19.20
2022-09-15T12:45:55.577Z,19.40
2022-09-15T12:48:28.151Z,19.60
2022-09-15T12:51:06.104Z,19.50
2022-09-15T12:53:55.871Z,19.90
2022-09-15T12:56:31.864Z,20.10
2022-09-15T12:59:07.284Z,19.70
2022-09-15T13:01:43.494Z,19.50
2022-09-15T13:04:24.948Z,19.20
2022-09-15T13:07:17.186Z,19.10
2022-09-15T13:09:56.674Z,18.80
2022-09-15T13:12:31.963Z,18.60
2022-09-15T13:15:04.342Z,19.20
2022-09-15T13:17:33.255Z,19.40
2022-09-15T13:20:09.795Z,19.60
2022-09-15T13:22:44.380Z,19.70
2022-09-15T13:25:13.647Z,19.60
2022-09-15T13:27:54.036Z,19.20
2022-09-15T13:30:24.050Z,18.50
2022-09-15T13:40:18.088Z,17.10
2022-09-15T13:43:38.727Z,17.00
2022-09-15T13:46:19.099Z,16.90
2022-09-15T13:49:20.285Z,17.00
2022-09-15T13:52:01.665Z,17.30
2022-09-15T13:54:28.785Z,17.50
2022-09-15T13:57:00.980Z,17.70
2022-09-15T13:59:32.481Z,18.10
2022-09-15T14:02:00.356Z,18.60
2022-09-15T14:04:31.406Z,18.70
2022-09-15T14:07:01.424Z,19.00
2022-09-15T14:09:39.548Z,19.00
2022-09-15T14:12:12.368Z,19.30
2022-09-15T14:14:50.284Z,19.50
2022-09-15T14:17:28.844Z,19.50
2022-09-15T14:19:59.768Z,19.30
2022-09-15T14:22:33.372Z,18.90
2022-09-15T14:25:16.593Z,18.70
2022-09-15T14:27:47.697Z,18.10
2022-09-15T14:30:23.754Z,17.30
2022-09-15T14:33:01.056Z,16.80
2022-09-15T14:35:37.218Z,16.20
2022-09-15T14:38:04.276Z,15.80
2022-09-15T14:40:39.987Z,15.60
2022-09-15T14:43:31.260Z,15.70
2022-09-15T14:46:20.728Z,15.70
2022-09-15T14:48:47.759Z,15.60
2022-09-15T14:51:20.680Z,15.60
2022-09-15T14:53:51.117Z,15.60
2022-09-15T14:56:22.993Z,15.90
2022-09-15T14:58:58.437Z,16.00
2022-09-15T15:01:36.048Z,16.20
2022-09-15T15:04:30.348Z,16.40
2022-09-15T15:07:25.256Z,16.50
2022-09-15T15:10:04.297Z,16.30
2022-09-15T15:12:36.529Z,16.30
2022-09-15T15:15:06.075Z,16.40
2022-09-15T15:17:46.651Z,16.40
2022-09-15T15:20:27.053Z,16.30
2022-09-15T15:23:33.427Z,16.20
2022-09-15T15:26:38.400Z,16.30
2022-09-15T15:29:28.969Z,16.20
2022-09-15T15:32:15.664Z,16.30
2022-09-15T15:34:53.771Z,16.30
2022-09-15T15:37:34.206Z,16.40
2022-09-15T15:40:06.415Z,16.20
2022-09-15T15:42:34.361Z,16.20
2022-09-15T15:45:13.433Z,15.90
2022-09-15T15:47:40.463Z,15.80
2022-09-15T15:50:26.117Z,15.80
2022-09-15T15:52:53.740Z,15.70
2022-09-15T15:55:24.179Z,15.60
2022-09-15T15:57:54.124Z,15.50
2022-09-15T16:00:33.173Z,15.30
2022-09-15T16:03:00.339Z,15.20
2022-09-15T16:05:29.101Z,15.00
2022-09-15T16:08:00.500Z,15.10
2022-09-15T16:10:36.784Z,15.10
2022-09-15T16:13:03.830Z,15.10
2022-09-15T16:15:30.804Z,15.40
2022-09-15T16:17:57.904Z,15.60
2022-09-15T16:20:25.200Z,15.70
2022-09-15T16:22:52.311Z,15.80
2022-09-15T16:25:40.555Z,15.70
2022-09-15T16:28:07.694Z,15.60
2022-09-15T16:30:35.039Z,15.60
2022-09-15T16:33:02.132Z,15.50
2022-09-15T16:35:40.153Z,15.50
2022-09-15T16:38:08.225Z,15.40
2022-09-15T16:40:37.071Z,15.30
2022-09-15T16:43:10.019Z,15.20
2022-09-15T16:45:40.661Z,15.10
2022-09-15T16:48:09.785Z,15.00
2022-09-15T16:50:39.832Z,14.90
2022-09-15T16:53:14.900Z,14.90
2022-09-15T16:55:47.151Z,14.90
2022-09-15T16:58:16.104Z,14.80
2022-09-15T17:00:45.413Z,14.80
2022-09-15T17:03:18.275Z,14.90
2022-09-15T17:05:50.475Z,14.90
2022-09-15T17:08:20.611Z,15.00
2022-09-15T17:10:48.532Z,15.10
2022-09-15T17:13:20.528Z,15.00
2022-09-15T17:15:48.825Z,15.00
2022-09-15T17:18:16.404Z,14.90
2022-09-15T17:20:45.959Z,14.80
2022-09-15T17:23:33.711Z,14.70
2022-09-15T17:26:13.364Z,14.50
2022-09-15T17:28:41.067Z,14.50
2022-09-15T17:31:21.437Z,14.40
2022-09-15T17:33:49.942Z,14.40
2022-09-15T17:36:17.775Z,14.30
2022-09-15T17:38:46.021Z,14.30
2022-09-15T17:41:19.631Z,14.20
2022-09-15T17:43:47.262Z,14.10
2022-09-15T17:46:14.286Z,14.10
2022-09-15T17:48:41.400Z,14.10
2022-09-15T17:51:15.144Z,14.10
2022-09-15T17:53:42.858Z,14.10
2022-09-15T17:56:10.016Z,14.10
2022-09-15T17:58:37.192Z,14.00
2022-09-15T18:01:04.370Z,13.90
2022-09-15T18:03:37.425Z,13.80
2022-09-15T18:06:07.977Z,13.80
2022-09-15T18:08:36.138Z,13.70
2022-09-15T18:11:05.401Z,13.60
2022-09-15T18:13:33.432Z,13.50
2022-09-15T18:16:06.452Z,13.50
2022-09-15T18:18:34.063Z,13.40
2022-09-15T18:21:01.853Z,13.40
2022-09-15T18:23:29.525Z,13.30
2022-09-15T18:25:57.546Z,13.30
2022-09-15T18:28:24.779Z,13.30
2022-09-15T18:30:52.299Z,13.20
2022-09-15T18:33:25.495Z,13.20
2022-09-15T18:35:58.887Z,13.10
2022-09-15T18:38:26.104Z,13.00
2022-09-15T18:40:56.436Z,13.00
2022-09-15T18:43:26.346Z,12.80
2022-09-15T18:46:01.406Z,12.80
2022-09-15T18:48:29.372Z,12.70
2022-09-15T18:50:56.785Z,12.70
2022-09-15T18:53:24.560Z,12.60
2022-09-15T18:55:51.701Z,12.60
2022-09-15T18:58:22.616Z,12.50
2022-09-15T19:00:50.083Z,12.40
2022-09-15T19:03:17.190Z,12.40
2022-09-15T19:05:45.709Z,12.40
2022-09-15T19:08:12.796Z,12.40
2022-09-15T19:10:42.180Z,12.40
2022-09-15T19:13:11.233Z,12.40
2022-09-15T19:15:43.897Z,12.50
2022-09-15T19:18:11.313Z,12.50
2022-09-15T19:20:38.376Z,12.50
2022-09-15T19:23:05.333Z,12.50
2022-09-15T19:25:32.600Z,12.50
2022-09-15T19:27:59.757Z,12.40
2022-09-15T19:30:26.847Z,12.40
2022-09-15T19:32:54.320Z,12.50
2022-09-15T19:35:21.360Z,12.60
2022-09-15T19:37:48.606Z,12.50
2022-09-15T19:40:16.259Z,12.60
2022-09-15T19:42:44.764Z,12.60
2022-09-15T19:45:13.043Z,12.60
2022-09-15T19:47:40.381Z,12.60
2022-09-15T19:50:09.926Z,12.60
2022-09-15T19:52:36.937Z,12.70
2022-09-15T19:55:06.631Z,12.70
2022-09-15T19:57:33.528Z,12.70
2022-09-15T20:00:00.610Z,12.70
2022-09-15T20:02:27.929Z,12.70
2022-09-15T20:04:55.040Z,12.70
2022-09-15T20:07:22.096Z,12.70
2022-09-15T20:09:49.148Z,12.80
2022-09-15T20:12:16.192Z,12.70
2022-09-15T20:14:43.239Z,12.70
2022-09-15T20:17:10.308Z,12.70
2022-09-15T20:19:37.407Z,12.60
2022-09-15T20:22:04.700Z,12.70
2022-09-15T20:24:31.796Z,12.60
2022-09-15T20:26:59.256Z,12.60
2022-09-15T20:29:26.412Z,12.50
2022-09-15T20:31:53.807Z,12.50
2022-09-15T20:34:21.170Z,12.40
2022-09-15T20:36:48.855Z,12.40
2022-09-15T20:39:16.358Z,12.40
2022-09-15T20:41:45.172Z,12.40
2022-09-15T20:44:12.867Z,12.40
2022-09-15T20:46:40.134Z,12.30
2022-09-15T20:49:07.647Z,12.20
2022-09-15T20:51:35.178Z,12.20
2022-09-15T20:54:04.177Z,12.10
2022-09-15T20:56:35.105Z,12.10
2022-09-15T20:59:04.273Z,12.10
2022-09-15T21:01:37.589Z,12.10
2022-09-15T21:04:07.860Z,12.10
2022-09-15T21:06:35.928Z,12.10
2022-09-15T21:09:04.488Z,12.20
2022-09-15T21:11:31.525Z,12.10
2022-09-15T21:13:59.090Z,12.10
2022-09-15T21:16:28.883Z,12.10
2022-09-15T21:18:58.180Z,12.10
2022-09-15T21:21:31.249Z,12.10
2022-09-15T21:24:07.520Z,12.00
2022-09-15T21:26:58.152Z,11.90
2022-09-15T21:29:26.376Z,11.90
2022-09-15T21:31:55.641Z,11.80
2022-09-15T21:34:22.801Z,11.80
2022-09-15T21:36:53.475Z,11.70
2022-09-15T21:39:21.349Z,11.70
2022-09-15T21:41:48.274Z,11.70
2022-09-15T21:44:16.343Z,11.60
2022-09-15T21:46:44.926Z,11.50
2022-09-15T21:49:11.897Z,11.50
2022-09-15T21:51:39.641Z,11.50
2022-09-15T21:54:06.632Z,11.50
2022-09-15T21:56:33.643Z,11.40
2022-09-15T21:59:03.599Z,11.40
2022-09-15T22:01:32.914Z,11.40
2022-09-15T22:04:06.317Z,11.40
2022-09-15T22:06:37.425Z,11.40
2022-09-15T22:09:16.613Z,11.40
2022-09-15T22:11:44.310Z,11.30
2022-09-15T22:14:13.049Z,11.30
2022-09-15T22:16:42.234Z,11.20
2022-09-15T22:19:11.861Z,11.20
2022-09-15T22:21:41.747Z,11.20
2022-09-15T22:24:11.879Z,11.20
2022-09-15T22:26:41.134Z,11.10
2022-09-15T22:29:08.081Z,11.10
2022-09-15T22:31:35.856Z,11.00
2022-09-15T22:34:03.573Z,11.10
2022-09-15T22:36:31.126Z,11.00
2022-09-15T22:39:05.958Z,11.00
2022-09-15T22:41:39.045Z,11.00
2022-09-15T22:44:07.762Z,11.00
2022-09-15T22:46:35.265Z,10.90
2022-09-15T22:49:02.563Z,10.90
2022-09-15T22:51:29.907Z,10.80
2022-09-15T22:53:57.488Z,10.80
2022-09-15T22:56:26.406Z,10.80
2022-09-15T22:58:54.107Z,10.80
2022-09-15T23:01:24.506Z,10.80
2022-09-15T23:03:59.925Z,10.90
2022-09-15T23:06:30.734Z,10.90
2022-09-15T23:09:01.069Z,11.00
2022-09-15T23:11:30.017Z,11.00
2022-09-15T23:13:57.547Z,11.00
2022-09-15T23:16:25.645Z,10.90
2022-09-15T23:18:54.016Z,10.90
2022-09-15T23:21:21.647Z,10.80
2022-09-15T23:23:49.253Z,10.80
2022-09-15T23:26:19.408Z,10.80
2022-09-15T23:28:46.697Z,10.70
2022-09-15T23:31:14.461Z,10.70
2022-09-15T23:33:42.108Z,10.70
2022-09-15T23:36:14.777Z,10.70
2022-09-15T23:38:44.837Z,10.60
2022-09-15T23:41:13.451Z,10.70
2022-09-15T23:43:40.480Z,10.70
2022-09-15T23:46:08.086Z,10.80
2022-09-15T23:48:35.434Z,10.80
2022-09-15T23:51:04.635Z,10.80
2022-09-15T23:53:31.619Z,10.80
2022-09-15T23:55:58.579Z,10.90
2022-09-15T23:58:25.600Z,10.90
